createdAt,value
2018-11-27T00:00:47.707Z,69.24
2018-11-27T00:03:17.013Z,69.28
2018-11-27T00:05:46.299Z,69.29
2018-11-27T00:08:15.617Z,69.28
2018-11-27T00:10:44.913Z,69.28
2018-11-27T00:13:14.255Z,69.34
2018-11-27T00:15:43.551Z,69.53
2018-11-27T00:18:12.849Z,69.62
2018-11-27T00:20:42.116Z,69.64
2018-11-27T00:23:11.506Z,69.59
2018-11-27T00:25:40.809Z,69.62
2018-11-27T00:28:10.100Z,69.81
2018-11-27T00:30:39.411Z,69.87
2018-11-27T00:33:08.710Z,69.86
2018-11-27T00:35:37.997Z,69.87
2018-11-27T00:38:07.533Z,70.00
2018-11-27T00:40:36.822Z,69.91
2018-11-27T00:43:06.191Z,69.98
2018-11-27T00:45:35.433Z,70.19
2018-11-27T00:48:04.748Z,70.18
2018-11-27T00:50:34.045Z,70.24
2018-11-27T00:53:03.420Z,70.25
2018-11-27T00:55:32.701Z,70.15
2018-11-27T00:58:02.018Z,70.04
2018-11-27T01:00:31.324Z,70.13
2018-11-27T01:03:00.626Z,70.17
2018-11-27T01:05:29.926Z,70.30
2018-11-27T01:07:59.224Z,70.27
2018-11-27T01:10:28.523Z,70.35
2018-11-27T01:12:57.819Z,70.34
2018-11-27T01:15:27.107Z,70.23
2018-11-27T01:18:15.441Z,70.20
2018-11-27T01:20:44.738Z,70.27
2018-11-27T01:23:14.054Z,70.37
2018-11-27T01:25:43.367Z,70.56
2018-11-27T01:28:12.673Z,70.57
2018-11-27T01:30:41.982Z,70.60
2018-11-27T01:33:11.289Z,70.49
2018-11-27T01:35:40.567Z,70.43
2018-11-27T01:38:09.864Z,70.44
2018-11-27T01:40:39.159Z,70.47
2018-11-27T01:43:08.454Z,70.59
2018-11-27T01:45:37.735Z,70.72
2018-11-27T01:48:07.145Z,70.88
2018-11-27T01:50:36.426Z,70.91
2018-11-27T01:53:06.296Z,70.85
2018-11-27T01:55:35.575Z,70.83
2018-11-27T01:58:04.889Z,70.75
2018-11-27T02:00:34.196Z,70.72
2018-11-27T02:05:39.620Z,70.77
2018-11-27T02:08:08.858Z,70.71
2018-11-27T02:10:38.141Z,70.75
2018-11-27T02:13:07.781Z,70.92
2018-11-27T02:15:37.080Z,71.00
2018-11-27T02:18:06.836Z,70.93
2018-11-27T02:20:37.196Z,71.02
2018-11-27T02:23:07.082Z,71.08
2018-11-27T02:25:36.358Z,71.10
2018-11-27T02:28:05.873Z,71.08
2018-11-27T02:30:35.294Z,71.08
2018-11-27T02:33:24.189Z,71.16
2018-11-27T02:35:53.477Z,71.34
2018-11-27T02:38:22.783Z,71.39
2018-11-27T02:40:52.073Z,71.35
2018-11-27T02:43:21.399Z,71.40
2018-11-27T02:45:50.716Z,71.54
2018-11-27T02:48:20.015Z,71.82
2018-11-27T02:50:49.343Z,71.99
2018-11-27T02:53:18.701Z,72.06
2018-11-27T02:55:47.998Z,71.99
2018-11-27T02:58:17.329Z,71.93
2018-11-27T03:00:46.611Z,71.83
2018-11-27T03:03:15.918Z,71.91
2018-11-27T03:05:45.212Z,72.07
2018-11-27T03:08:14.502Z,72.28
2018-11-27T03:10:43.828Z,72.37
2018-11-27T03:13:13.127Z,72.72
2018-11-27T03:15:42.431Z,72.90
2018-11-27T03:18:11.715Z,73.14
2018-11-27T03:20:41.030Z,73.21
2018-11-27T03:23:10.333Z,73.35
2018-11-27T03:25:39.634Z,73.62
2018-11-27T03:28:08.925Z,73.74
2018-11-27T03:30:38.226Z,74.07
2018-11-27T03:33:07.510Z,74.12
2018-11-27T03:35:36.862Z,74.04
2018-11-27T03:38:06.520Z,74.00
2018-11-27T03:40:35.813Z,74.00
2018-11-27T03:43:05.135Z,74.08
2018-11-27T03:45:34.423Z,74.20
2018-11-27T03:48:03.693Z,74.22
2018-11-27T03:50:33.715Z,74.25
2018-11-27T03:53:03.006Z,74.38
2018-11-27T03:55:32.298Z,74.43
2018-11-27T03:58:01.574Z,74.39
2018-11-27T04:00:31.750Z,74.33
2018-11-27T04:03:20.074Z,74.35
2018-11-27T04:05:49.360Z,74.42
2018-11-27T04:08:18.641Z,74.37
2018-11-27T04:10:47.928Z,74.45
2018-11-27T04:13:17.203Z,74.62
2018-11-27T04:15:46.502Z,74.74
2018-11-27T04:18:15.769Z,74.76
2018-11-27T04:20:45.067Z,74.82
2018-11-27T04:23:14.380Z,74.89
2018-11-27T04:25:43.698Z,74.92
2018-11-27T04:28:12.982Z,74.90
2018-11-27T04:30:42.592Z,74.90
2018-11-27T04:33:11.894Z,75.09
2018-11-27T04:35:41.183Z,75.06
2018-11-27T04:38:10.460Z,75.05
2018-11-27T04:40:39.742Z,75.10
2018-11-27T04:43:09.013Z,75.16
2018-11-27T04:45:38.291Z,75.08
2018-11-27T04:48:07.563Z,75.01
2018-11-27T04:50:36.893Z,74.97
2018-11-27T04:53:06.469Z,75.03
2018-11-27T04:55:35.777Z,74.99
2018-11-27T04:58:05.085Z,75.08
2018-11-27T05:00:34.765Z,75.09
2018-11-27T05:03:04.044Z,75.19
2018-11-27T05:05:33.325Z,75.27
2018-11-27T05:08:02.626Z,75.28
2018-11-27T05:10:31.889Z,75.25
2018-11-27T05:13:01.192Z,75.18
2018-11-27T05:15:30.457Z,75.10
2018-11-27T05:18:00.218Z,75.08
2018-11-27T05:20:29.491Z,75.25
2018-11-27T05:22:58.794Z,75.32
2018-11-27T05:25:28.065Z,75.31
2018-11-27T05:27:58.276Z,75.18
2018-11-27T05:30:46.618Z,75.32
2018-11-27T05:33:15.908Z,75.32
2018-11-27T05:35:45.188Z,75.42
2018-11-27T05:38:14.485Z,75.51
2018-11-27T05:40:43.761Z,75.44
2018-11-27T05:43:13.032Z,75.53
2018-11-27T05:45:42.309Z,75.48
2018-11-27T05:48:11.598Z,75.52
2018-11-27T05:50:40.880Z,75.57
2018-11-27T05:53:10.167Z,75.61
2018-11-27T05:55:39.448Z,75.68
2018-11-27T05:58:08.743Z,75.83
2018-11-27T06:00:38.022Z,75.75
2018-11-27T06:03:09.765Z,75.81
2018-11-27T06:05:39.043Z,75.73
2018-11-27T06:08:08.349Z,75.91
2018-11-27T06:10:37.619Z,76.00
2018-11-27T06:13:07.074Z,75.95
2018-11-27T06:15:36.346Z,75.91
2018-11-27T06:18:05.966Z,75.82
2018-11-27T06:20:35.264Z,75.96
2018-11-27T06:23:04.548Z,75.71
2018-11-27T06:25:33.834Z,75.89
2018-11-27T06:28:04.375Z,76.28
2018-11-27T06:30:34.920Z,76.65
2018-11-27T06:33:04.216Z,76.62
2018-11-27T06:35:52.573Z,76.66
2018-11-27T06:38:21.866Z,76.58
2018-11-27T06:40:51.142Z,76.68
2018-11-27T06:43:20.436Z,76.86
2018-11-27T06:45:49.712Z,76.75
2018-11-27T06:48:18.972Z,76.69
2018-11-27T06:50:48.268Z,76.63
2018-11-27T06:53:17.545Z,76.61
2018-11-27T06:55:46.813Z,76.69
2018-11-27T06:58:16.128Z,76.72
2018-11-27T07:00:45.410Z,76.94
2018-11-27T07:03:15.278Z,76.89
2018-11-27T07:05:44.553Z,76.99
2018-11-27T07:08:13.824Z,77.06
2018-11-27T07:11:02.160Z,77.11
2018-11-27T07:13:31.434Z,77.13
2018-11-27T07:16:00.713Z,77.08
2018-11-27T07:18:29.968Z,77.16
2018-11-27T07:20:59.280Z,77.04
2018-11-27T07:23:28.544Z,76.89
2018-11-27T07:25:57.839Z,76.82
2018-11-27T07:28:27.108Z,76.79
2018-11-27T07:30:56.405Z,76.66
2018-11-27T07:33:25.666Z,76.69
2018-11-27T07:35:54.940Z,76.96
2018-11-27T07:38:24.205Z,77.11
2018-11-27T07:40:54.000Z,77.27
2018-11-27T07:43:23.252Z,77.35
2018-11-27T07:45:55.213Z,77.32
2018-11-27T07:48:22.768Z,77.24
2018-11-27T07:50:52.056Z,77.26
2018-11-27T07:53:21.322Z,77.02
2018-11-27T07:55:50.594Z,76.85
2018-11-27T07:58:21.944Z,77.13
2018-11-27T08:01:10.324Z,77.11
2018-11-27T08:03:39.935Z,77.05
2018-11-27T08:06:28.736Z,77.02
2018-11-27T08:08:58.031Z,76.89
2018-11-27T08:11:27.780Z,76.92
2018-11-27T08:13:57.087Z,76.97
2018-11-27T08:16:26.374Z,76.91
2018-11-27T08:18:55.716Z,76.90
2018-11-27T08:21:25.200Z,76.97
2018-11-27T08:23:54.979Z,76.78
2018-11-27T08:26:24.255Z,76.72
2018-11-27T08:28:53.556Z,76.69
2018-11-27T08:31:23.178Z,76.65
2018-11-27T08:33:52.920Z,76.67
2018-11-27T08:36:22.280Z,76.59
2018-11-27T08:38:51.579Z,76.40
2018-11-27T08:41:40.703Z,76.31
2018-11-27T08:44:12.670Z,76.33
2018-11-27T08:46:41.986Z,76.18
2018-11-27T08:49:11.256Z,75.92
2018-11-27T08:51:40.532Z,75.47
2018-11-27T08:54:29.212Z,75.58
2018-11-27T08:56:58.585Z,75.37
2018-11-27T08:59:27.917Z,75.64
2018-11-27T09:01:57.148Z,75.52
2018-11-27T09:04:27.306Z,75.57
2018-11-27T09:06:56.714Z,75.48
2018-11-27T09:09:26.033Z,75.36
2018-11-27T09:11:55.937Z,74.89
2018-11-27T09:14:25.590Z,75.20
2018-11-27T09:16:55.100Z,75.22
2018-11-27T09:19:27.427Z,74.90
2018-11-27T09:22:12.708Z,75.03
2018-11-27T09:24:27.192Z,75.04
2018-11-27T09:26:56.546Z,74.97
2018-11-27T09:29:25.859Z,74.39
2018-11-27T09:31:55.141Z,74.63
2018-11-27T09:34:24.458Z,74.43
2018-11-27T09:36:53.741Z,74.19
2018-11-27T09:39:23.042Z,74.23
2018-11-27T09:41:52.348Z,74.20
2018-11-27T09:44:21.629Z,74.22
2018-11-27T09:46:50.908Z,73.95
2018-11-27T09:49:20.200Z,73.98
2018-11-27T09:51:49.463Z,74.00
2018-11-27T09:54:18.790Z,74.03
2018-11-27T09:56:48.065Z,73.98
2018-11-27T09:59:17.377Z,73.84
2018-11-27T10:01:46.658Z,73.41
2018-11-27T10:04:15.957Z,73.46
2018-11-27T10:06:45.256Z,73.51
2018-11-27T10:09:14.543Z,73.24
2018-11-27T10:11:43.826Z,73.45
2018-11-27T10:14:13.119Z,73.24
2018-11-27T10:16:42.393Z,72.91
2018-11-27T10:19:11.685Z,72.78
2018-11-27T10:21:40.966Z,72.84
2018-11-27T10:24:10.246Z,72.94
2018-11-27T10:26:39.520Z,72.74
2018-11-27T10:29:08.804Z,73.05
2018-11-27T10:31:38.065Z,72.72
2018-11-27T10:34:07.612Z,72.47
2018-11-27T10:36:36.981Z,72.69
2018-11-27T10:39:08.532Z,72.26
2018-11-27T10:41:37.811Z,72.20
2018-11-27T10:44:07.107Z,72.18
2018-11-27T10:46:36.652Z,72.42
2018-11-27T10:49:24.973Z,72.06
2018-11-27T10:51:54.243Z,71.87
2018-11-27T10:54:23.525Z,71.99
2018-11-27T10:56:52.783Z,72.18
2018-11-27T10:59:22.054Z,72.23
2018-11-27T11:02:10.048Z,72.36
2018-11-27T11:04:39.322Z,72.24
2018-11-27T11:07:08.759Z,71.87
2018-11-27T11:09:38.038Z,71.60
2018-11-27T11:12:07.320Z,71.49
2018-11-27T11:14:36.590Z,70.87
2018-11-27T11:17:06.272Z,71.23
2018-11-27T11:19:35.569Z,71.05
2018-11-27T11:22:04.885Z,70.68
2018-11-27T11:24:34.155Z,70.62
2018-11-27T11:27:03.428Z,70.39
2018-11-27T11:29:39.624Z,70.09
2018-11-27T11:32:08.931Z,69.69
2018-11-27T11:34:38.208Z,69.25
2018-11-27T11:37:07.505Z,69.33
2018-11-27T11:39:36.782Z,69.50
2018-11-27T11:42:06.052Z,69.38
2018-11-27T11:44:35.327Z,68.65
2018-11-27T11:47:04.595Z,69.09
2018-11-27T11:49:33.865Z,68.79
2018-11-27T11:52:03.152Z,68.66
2018-11-27T11:54:32.432Z,68.07
2018-11-27T11:57:01.699Z,68.66
2018-11-27T11:59:31.007Z,68.77
2018-11-27T12:02:00.279Z,68.42
2018-11-27T12:04:29.554Z,68.10
2018-11-27T12:06:58.834Z,67.97
2018-11-27T12:09:28.116Z,67.64
2018-11-27T12:12:00.442Z,67.03
2018-11-27T12:14:29.719Z,66.70
2018-11-27T12:16:58.989Z,66.76
2018-11-27T12:19:28.265Z,66.31
2018-11-27T12:21:57.620Z,65.86
2018-11-27T12:24:26.901Z,65.40
2018-11-27T12:26:56.195Z,65.24
2018-11-27T12:29:25.487Z,66.00
2018-11-27T12:31:54.793Z,65.52
2018-11-27T12:34:24.362Z,65.29
2018-11-27T12:36:53.613Z,64.81
2018-11-27T12:42:00.567Z,65.25
2018-11-27T12:44:29.841Z,64.80
2018-11-27T12:46:59.112Z,65.23
2018-11-27T12:49:28.420Z,64.87
2018-11-27T12:51:57.683Z,64.76
2018-11-27T12:54:26.963Z,64.25
2018-11-27T12:56:56.226Z,64.29
2018-11-27T12:59:25.516Z,64.40
2018-11-27T13:01:54.771Z,64.06
2018-11-27T13:04:24.056Z,64.23
2018-11-27T13:06:53.318Z,64.23
2018-11-27T13:09:22.612Z,64.42
2018-11-27T13:11:51.863Z,63.84
2018-11-27T13:14:21.155Z,64.18
2018-11-27T13:16:50.417Z,63.86
2018-11-27T13:19:19.684Z,64.12
2018-11-27T13:21:48.966Z,64.26
2018-11-27T13:24:18.319Z,64.09
2018-11-27T13:26:47.597Z,64.18
2018-11-27T13:29:16.861Z,64.67
2018-11-27T13:31:46.143Z,64.77
2018-11-27T13:34:16.725Z,64.80
2018-11-27T13:36:46.000Z,62.98
2018-11-27T13:39:53.339Z,64.08
2018-11-27T13:42:22.644Z,64.28
2018-11-27T13:44:51.915Z,64.45
2018-11-27T13:47:21.184Z,64.39
2018-11-27T13:49:50.510Z,64.26
2018-11-27T13:52:19.840Z,64.35
2018-11-27T13:54:49.101Z,63.88
2018-11-27T13:57:18.391Z,62.66
2018-11-27T13:59:47.643Z,62.58
2018-11-27T14:02:16.913Z,62.61
2018-11-27T14:04:46.182Z,62.28
2018-11-27T14:07:15.457Z,60.45
2018-11-27T14:09:45.304Z,60.25
2018-11-27T14:12:14.958Z,59.37
2018-11-27T14:14:44.282Z,58.58
2018-11-27T14:17:13.553Z,58.84
2018-11-27T14:19:42.839Z,57.58
2018-11-27T14:22:12.138Z,57.04
2018-11-27T14:24:41.416Z,56.62
2018-11-27T14:27:10.720Z,56.78
2018-11-27T14:29:39.983Z,56.91
2018-11-27T14:32:09.262Z,56.66
2018-11-27T14:34:38.515Z,55.75
2018-11-27T14:37:07.897Z,56.03
2018-11-27T14:39:37.157Z,56.20
2018-11-27T14:42:06.753Z,56.02
2018-11-27T14:44:55.996Z,56.14
2018-11-27T14:47:25.314Z,56.09
2018-11-27T14:49:54.597Z,55.61
2018-11-27T14:52:23.890Z,55.44
2018-11-27T14:54:53.190Z,56.02
2018-11-27T14:57:22.466Z,56.37
2018-11-27T14:59:51.998Z,55.43
2018-11-27T15:02:21.322Z,55.56
2018-11-27T15:04:50.581Z,55.22
2018-11-27T15:07:19.868Z,55.11
2018-11-27T15:09:49.138Z,55.11
2018-11-27T15:12:18.426Z,55.04
2018-11-27T15:14:47.709Z,55.11
2018-11-27T15:17:16.990Z,55.26
2018-11-27T15:19:46.260Z,55.20
2018-11-27T15:22:15.630Z,55.51
2018-11-27T15:24:44.899Z,55.48
2018-11-27T15:27:14.187Z,55.63
2018-11-27T15:29:43.531Z,55.92
2018-11-27T15:32:12.838Z,56.09
2018-11-27T15:34:54.980Z,56.08
2018-11-27T15:37:12.834Z,56.60
2018-11-27T15:39:42.113Z,57.40
2018-11-27T15:42:11.411Z,58.04
2018-11-27T15:44:40.675Z,58.96
2018-11-27T15:47:09.973Z,59.47
2018-11-27T15:49:39.257Z,60.12
2018-11-27T15:52:08.568Z,60.28
2018-11-27T15:54:37.844Z,60.52
2018-11-27T15:57:07.134Z,60.69
2018-11-27T15:59:36.466Z,60.93
2018-11-27T16:02:05.754Z,61.19
2018-11-27T16:04:35.080Z,61.59
2018-11-27T16:07:04.324Z,61.66
2018-11-27T16:09:33.629Z,61.82
2018-11-27T16:12:02.912Z,62.14
2018-11-27T16:14:32.205Z,62.25
2018-11-27T16:17:01.486Z,62.34
2018-11-27T16:19:30.788Z,62.34
2018-11-27T16:22:00.065Z,62.57
2018-11-27T16:24:29.369Z,62.62
2018-11-27T16:26:58.655Z,62.87
2018-11-27T16:29:27.999Z,62.88
2018-11-27T16:31:57.296Z,62.96
2018-11-27T16:34:26.600Z,63.08
2018-11-27T16:36:55.893Z,63.19
2018-11-27T16:39:25.557Z,63.34
2018-11-27T16:41:54.809Z,63.45
2018-11-27T16:44:24.133Z,64.10
2018-11-27T16:46:53.394Z,64.06
2018-11-27T16:49:42.294Z,64.15
2018-11-27T16:52:11.561Z,64.41
2018-11-27T16:54:40.882Z,64.42
2018-11-27T16:57:10.158Z,64.57
2018-11-27T16:59:39.462Z,64.70
2018-11-27T17:02:08.776Z,64.75
2018-11-27T17:04:38.445Z,64.90
2018-11-27T17:07:08.022Z,65.04
2018-11-27T17:09:37.330Z,65.28
2018-11-27T17:12:06.622Z,65.38
2018-11-27T17:14:35.921Z,65.48
2018-11-27T17:17:05.217Z,65.50
2018-11-27T17:19:34.535Z,65.53
2018-11-27T17:22:03.825Z,65.56
2018-11-27T17:24:33.126Z,65.59
2018-11-27T17:27:02.413Z,65.75
2018-11-27T17:29:31.719Z,65.92
2018-11-27T17:32:01.002Z,65.95
2018-11-27T17:34:30.310Z,65.98
2018-11-27T17:36:59.594Z,66.04
2018-11-27T17:39:28.886Z,66.16
2018-11-27T17:41:58.153Z,66.41
2018-11-27T17:44:27.468Z,66.44
2018-11-27T17:47:18.764Z,66.45
2018-11-27T17:49:48.168Z,66.46
2018-11-27T17:52:29.453Z,66.63
2018-11-27T17:54:47.990Z,66.74
2018-11-27T17:57:17.290Z,66.98
2018-11-27T17:59:46.596Z,67.15
2018-11-27T18:02:15.881Z,67.25
2018-11-27T18:04:45.191Z,67.45
2018-11-27T18:07:14.473Z,67.49
2018-11-27T18:09:43.797Z,67.51
2018-11-27T18:12:13.118Z,67.58
2018-11-27T18:14:42.380Z,67.62
2018-11-27T18:17:11.660Z,67.64
2018-11-27T18:19:40.958Z,67.68
2018-11-27T18:22:10.287Z,67.69
2018-11-27T18:24:39.609Z,67.72
2018-11-27T18:27:08.923Z,67.71
2018-11-27T18:29:38.238Z,67.85
2018-11-27T18:32:07.571Z,67.98
2018-11-27T18:34:36.883Z,67.99
2018-11-27T18:37:06.197Z,68.00
2018-11-27T18:39:35.592Z,68.15
2018-11-27T18:42:04.889Z,68.30
2018-11-27T18:44:34.199Z,68.54
2018-11-27T18:47:03.504Z,68.67
2018-11-27T18:49:32.799Z,68.72
2018-11-27T18:52:02.116Z,68.75
2018-11-27T18:54:31.436Z,68.79
2018-11-27T18:57:00.735Z,68.86
2018-11-27T18:59:30.014Z,68.80
2018-11-27T19:01:59.323Z,68.80
2018-11-27T19:04:28.625Z,68.98
2018-11-27T19:06:57.922Z,68.98
2018-11-27T19:09:27.250Z,68.99
2018-11-27T19:11:56.565Z,69.03
2018-11-27T19:14:25.838Z,68.79
2018-11-27T19:16:55.149Z,68.79
2018-11-27T19:19:24.427Z,68.99
2018-11-27T19:21:53.722Z,69.55
2018-11-27T19:24:22.991Z,69.74
2018-11-27T19:26:52.298Z,70.23
2018-11-27T19:29:21.582Z,70.16
2018-11-27T19:31:50.877Z,70.25
2018-11-27T19:34:20.184Z,70.27
2018-11-27T19:36:49.576Z,70.40
2018-11-27T19:39:18.860Z,70.25
2018-11-27T19:41:48.128Z,69.92
2018-11-27T19:44:17.420Z,69.61
2018-11-27T19:46:46.689Z,69.38
2018-11-27T19:49:15.987Z,69.34
2018-11-27T19:51:45.326Z,69.50
2018-11-27T19:54:14.618Z,69.40
2018-11-27T19:56:43.899Z,69.35
2018-11-27T19:59:13.229Z,69.31
2018-11-27T20:01:42.552Z,69.24
2018-11-27T20:04:11.852Z,69.45
2018-11-27T20:06:41.154Z,69.64
2018-11-27T20:09:10.742Z,69.81
2018-11-27T20:11:40.048Z,69.82
2018-11-27T20:14:09.360Z,69.65
2018-11-27T20:16:38.777Z,69.61
2018-11-27T20:19:08.063Z,69.66
2018-11-27T20:21:37.386Z,69.63
2018-11-27T20:24:06.737Z,69.71
2018-11-27T20:26:36.346Z,69.72
2018-11-27T20:29:06.279Z,69.92
2018-11-27T20:31:35.570Z,69.87
2018-11-27T20:34:04.880Z,69.68
2018-11-27T20:36:34.170Z,69.55
2018-11-27T20:41:40.040Z,69.61
2018-11-27T20:44:09.341Z,69.74
2018-11-27T20:46:38.661Z,69.82
2018-11-27T20:49:07.976Z,69.89
2018-11-27T20:51:37.270Z,69.78
2018-11-27T20:54:06.886Z,69.78
2018-11-27T20:56:36.249Z,69.91
2018-11-27T20:59:05.778Z,69.81
2018-11-27T21:01:35.092Z,69.80
2018-11-27T21:04:04.373Z,69.97
2018-11-27T21:06:36.291Z,69.90
2018-11-27T21:09:25.969Z,69.88
2018-11-27T21:11:55.283Z,69.91
2018-11-27T21:14:24.615Z,69.78
2018-11-27T21:16:53.924Z,69.72
2018-11-27T21:19:23.223Z,69.95
2018-11-27T21:21:52.524Z,69.75
2018-11-27T21:24:21.839Z,69.70
2018-11-27T21:26:51.117Z,69.58
2018-11-27T21:29:20.579Z,69.36
2018-11-27T21:31:49.898Z,69.27
2018-11-27T21:34:19.193Z,69.19
2018-11-27T21:36:48.502Z,69.01
2018-11-27T21:39:17.792Z,68.85
2018-11-27T21:41:47.135Z,68.90
2018-11-27T21:44:16.430Z,68.46
2018-11-27T21:47:04.848Z,68.31
2018-11-27T21:49:34.129Z,68.25
2018-11-27T21:52:03.457Z,67.93
2018-11-27T21:54:32.790Z,68.04
2018-11-27T21:57:02.103Z,68.10
2018-11-27T21:59:31.778Z,67.64
2018-11-27T22:02:01.082Z,67.94
2018-11-27T22:04:30.428Z,67.90
2018-11-27T22:06:59.684Z,67.92
2018-11-27T22:09:29.820Z,67.43
2018-11-27T22:12:21.902Z,67.59
2018-11-27T22:14:51.200Z,67.50
2018-11-27T22:17:20.523Z,67.65
2018-11-27T22:19:49.985Z,67.60
2018-11-27T22:22:19.803Z,67.50
2018-11-27T22:25:09.408Z,67.47
2018-11-27T22:27:39.600Z,67.60
2018-11-27T22:30:19.731Z,67.57
2018-11-27T22:32:53.294Z,67.49
2018-11-27T22:35:22.813Z,67.50
2018-11-27T22:37:53.268Z,67.54
2018-11-27T22:40:42.101Z,67.55
2018-11-27T22:43:12.636Z,67.44
2018-11-27T22:45:42.330Z,67.37
2018-11-27T22:48:12.656Z,67.27
2018-11-27T22:50:41.926Z,67.28
2018-11-27T22:53:11.247Z,67.33
2018-11-27T22:55:40.568Z,67.40
2018-11-27T22:58:10.150Z,67.46
2018-11-27T23:00:58.116Z,67.55
2018-11-27T23:03:27.424Z,67.60
2018-11-27T23:05:56.702Z,67.61
2018-11-27T23:08:26.003Z,67.66
2018-11-27T23:10:55.326Z,67.67
2018-11-27T23:13:24.616Z,67.73
2018-11-27T23:15:53.904Z,67.71
2018-11-27T23:18:23.185Z,67.79
2018-11-27T23:20:52.486Z,67.85
2018-11-27T23:23:21.800Z,67.81
2018-11-27T23:25:51.096Z,67.71
2018-11-27T23:28:20.490Z,67.69
2018-11-27T23:30:49.796Z,67.57
2018-11-27T23:33:19.082Z,67.54
2018-11-27T23:35:48.383Z,67.56
2018-11-27T23:38:17.657Z,67.55
2018-11-27T23:40:46.967Z,67.64
2018-11-27T23:43:16.254Z,67.72
2018-11-27T23:45:45.586Z,67.68
2018-11-27T23:48:14.874Z,67.75
2018-11-27T23:50:44.193Z,67.80
2018-11-27T23:53:13.478Z,67.90
2018-11-27T23:55:42.823Z,68.01
2018-11-27T23:58:12.132Z,67.96
